createdAt,value
2023-03-31T03:48:21.385Z,4.60
2023-03-31T03:51:24.351Z,4.22
2023-03-31T03:54:26.724Z,3.95
2023-03-31T03:57:29.498Z,4.90
2023-03-31T04:00:32.243Z,4.68
2023-03-31T04:03:35.610Z,4.68
2023-03-31T04:06:38.142Z,3.87
2023-03-31T04:09:40.898Z,4.47
2023-03-31T04:12:43.308Z,4.37
2023-03-31T04:15:46.650Z,5.23
2023-03-31T04:18:56.818Z,5.10
2023-03-31T04:22:03.026Z,5.10
2023-03-31T04:25:15.159Z,4.87
2023-03-31T04:28:17.881Z,5.40
2023-03-31T04:31:25.405Z,5.50
2023-03-31T04:34:35.213Z,4.70
2023-03-31T04:37:38.876Z,5.53
2023-03-31T04:40:41.487Z,5.32
2023-03-31T04:43:44.174Z,7.03
2023-03-31T04:46:46.942Z,6.12
2023-03-31T04:49:50.353Z,8.85
2023-03-31T04:52:53.279Z,5.80
2023-03-31T04:55:56.048Z,6.47
2023-03-31T04:59:00.060Z,6.15
2023-03-31T05:02:03.010Z,6.10
2023-03-31T05:05:06.036Z,6.93
2023-03-31T05:08:08.815Z,6.20
2023-03-31T05:11:12.494Z,6.10
2023-03-31T05:14:15.325Z,6.60
2023-03-31T05:17:19.126Z,6.30
2023-03-31T05:20:21.635Z,6.32
2023-03-31T05:23:24.317Z,8.87
2023-03-31T05:26:27.059Z,7.78
2023-03-31T05:29:31.158Z,8.07
2023-03-31T05:32:33.914Z,8.10
2023-03-31T05:35:36.675Z,6.45
2023-03-31T05:38:40.258Z,7.70
2023-03-31T05:41:43.049Z,6.40
2023-03-31T05:44:48.048Z,6.12
2023-03-31T05:47:50.940Z,6.97
2023-03-31T05:50:57.920Z,5.70
2023-03-31T05:54:00.852Z,5.75
2023-03-31T05:57:03.837Z,5.57
2023-03-31T06:00:10.459Z,5.22
2023-03-31T06:03:14.273Z,5.07
2023-03-31T06:06:17.069Z,4.65
2023-03-31T06:09:20.323Z,4.37
2023-03-31T06:12:22.726Z,4.57
2023-03-31T06:15:25.460Z,4.32
2023-03-31T06:18:29.699Z,4.97
2023-03-31T06:21:32.906Z,3.72
2023-03-31T06:24:36.090Z,5.00
2023-03-31T06:27:38.736Z,5.50
2023-03-31T06:30:41.576Z,4.10
2023-03-31T06:33:45.711Z,4.25
2023-03-31T06:36:48.138Z,3.55
2023-03-31T06:39:51.191Z,4.90
2023-03-31T06:42:53.632Z,3.65
2023-03-31T06:48:59.270Z,4.25
2023-03-31T06:52:02.126Z,3.87
2023-03-31T06:55:04.899Z,3.77
2023-03-31T06:58:08.071Z,4.05
2023-03-31T07:01:11.970Z,5.05
2023-03-31T07:04:17.466Z,3.40
2023-03-31T07:07:19.902Z,4.37
2023-03-31T07:10:24.336Z,4.57
2023-03-31T07:13:28.433Z,2.92
2023-03-31T07:16:31.808Z,3.87
2023-03-31T07:19:37.868Z,3.28
2023-03-31T07:22:45.586Z,3.72
2023-03-31T07:25:48.790Z,4.00
2023-03-31T07:28:52.119Z,3.22
2023-03-31T07:31:54.927Z,3.67
2023-03-31T07:34:57.612Z,2.95
2023-03-31T07:38:00.323Z,3.10
2023-03-31T07:44:12.749Z,3.45
2023-03-31T07:47:15.609Z,4.28
2023-03-31T07:50:20.194Z,4.40
2023-03-31T07:53:23.877Z,5.18
2023-03-31T07:56:26.645Z,5.00
2023-03-31T08:02:34.224Z,5.35
2023-03-31T08:05:37.279Z,4.15
2023-03-31T08:08:43.231Z,3.92
2023-03-31T08:11:48.036Z,5.25
2023-03-31T08:14:50.861Z,3.42
2023-03-31T08:17:53.690Z,4.32
2023-03-31T08:20:56.538Z,4.15
2023-03-31T08:23:59.437Z,4.65
2023-03-31T08:27:01.905Z,4.90
2023-03-31T08:30:06.684Z,3.87
2023-03-31T08:33:09.483Z,3.62
2023-03-31T08:39:14.911Z,3.63
2023-03-31T08:42:41.912Z,3.92
2023-03-31T08:45:47.793Z,4.30
2023-03-31T08:48:55.043Z,4.70
2023-03-31T08:52:04.664Z,4.35
2023-03-31T08:55:13.613Z,3.37
2023-03-31T08:58:40.471Z,3.40
2023-03-31T09:01:54.602Z,3.00
2023-03-31T09:05:25.711Z,3.87
2023-03-31T09:08:36.193Z,3.10
2023-03-31T09:11:50.783Z,4.25
2023-03-31T09:15:06.628Z,3.25
2023-03-31T09:18:14.907Z,3.70
2023-03-31T09:21:23.139Z,3.60
2023-03-31T09:24:39.301Z,3.62
2023-03-31T09:27:43.720Z,3.80
2023-03-31T09:30:51.831Z,3.95
2023-03-31T09:34:01.564Z,3.45
2023-03-31T09:37:06.848Z,3.22
2023-03-31T09:40:17.727Z,3.47
2023-03-31T09:43:26.509Z,3.58
2023-03-31T09:46:33.231Z,2.72
2023-03-31T09:49:37.530Z,3.10
2023-03-31T09:52:43.828Z,2.65
2023-03-31T09:56:00.893Z,3.45
2023-03-31T09:59:04.170Z,2.97
2023-03-31T10:02:35.495Z,3.50
2023-03-31T10:05:43.305Z,2.97
2023-03-31T10:09:01.368Z,2.95
2023-03-31T10:12:08.904Z,3.20
2023-03-31T10:15:29.524Z,3.47
2023-03-31T10:18:38.072Z,2.95
2023-03-31T10:21:40.735Z,2.97
2023-03-31T10:24:46.103Z,3.00
2023-03-31T10:27:52.814Z,3.05
2023-03-31T10:31:01.331Z,2.80
2023-03-31T10:34:12.500Z,2.42
2023-03-31T10:37:19.788Z,2.20
2023-03-31T10:40:25.654Z,3.00
2023-03-31T10:43:34.842Z,2.30
2023-03-31T10:46:40.042Z,2.62
2023-03-31T10:49:44.502Z,3.40
2023-03-31T10:52:48.550Z,3.67
2023-03-31T10:56:03.103Z,2.87
2023-03-31T10:59:31.134Z,3.80
2023-03-31T11:03:03.309Z,2.95
2023-03-31T11:06:22.593Z,3.42
2023-03-31T11:09:56.137Z,2.85
2023-03-31T11:13:21.801Z,2.92
2023-03-31T11:16:29.949Z,3.20
2023-03-31T11:20:10.986Z,2.17
2023-03-31T11:23:46.879Z,3.40
2023-03-31T11:27:26.933Z,2.22
2023-03-31T11:30:42.450Z,3.62
2023-03-31T11:34:07.568Z,3.33
2023-03-31T11:37:35.397Z,2.50
2023-03-31T11:40:56.471Z,3.08
2023-03-31T11:44:20.308Z,2.50
2023-03-31T11:50:32.682Z,2.65
2023-03-31T11:59:58.856Z,2.40
2023-03-31T12:03:18.612Z,2.12
2023-03-31T12:06:25.342Z,3.35
2023-03-31T12:09:39.665Z,4.97
2023-03-31T12:12:48.639Z,3.22
2023-03-31T12:16:03.749Z,3.08
2023-03-31T12:19:22.460Z,2.70
2023-03-31T12:22:31.090Z,3.15
2023-03-31T12:25:52.086Z,2.70
2023-03-31T12:28:59.248Z,2.50
2023-03-31T12:32:07.951Z,3.10
2023-03-31T12:35:42.370Z,3.12
2023-03-31T12:39:18.187Z,2.92
2023-03-31T12:42:59.425Z,3.05
2023-03-31T12:46:28.358Z,3.55
2023-03-31T12:50:15.627Z,2.70
2023-03-31T12:53:37.438Z,3.00
2023-03-31T12:57:01.815Z,3.25
2023-03-31T13:00:21.327Z,2.47
2023-03-31T13:03:35.925Z,2.65
2023-03-31T13:06:38.649Z,3.47
2023-03-31T13:09:45.740Z,3.22
2023-03-31T13:13:13.339Z,3.03
2023-03-31T13:16:21.191Z,2.85
2023-03-31T13:19:37.750Z,2.78
2023-03-31T13:22:48.495Z,2.47
2023-03-31T13:25:51.841Z,2.10
2023-03-31T13:29:19.267Z,2.85
2023-03-31T13:32:24.328Z,2.10
2023-03-31T13:35:31.336Z,2.62
2023-03-31T13:38:49.309Z,2.33
2023-03-31T13:42:13.356Z,1.83
2023-03-31T13:45:22.270Z,2.62
2023-03-31T13:48:44.426Z,2.58
2023-03-31T13:52:00.135Z,2.08
2023-03-31T13:55:13.968Z,3.22
2023-03-31T13:58:42.320Z,2.15
2023-03-31T14:01:50.119Z,2.85
2023-03-31T14:05:14.248Z,2.10
2023-03-31T14:08:38.320Z,2.70
2023-03-31T14:11:42.250Z,2.30
2023-03-31T14:14:44.811Z,2.05
2023-03-31T14:17:48.267Z,2.85
2023-03-31T14:24:14.813Z,2.67
2023-03-31T14:27:46.708Z,3.35
2023-03-31T14:31:06.638Z,2.03
2023-03-31T14:34:29.174Z,3.33
2023-03-31T14:37:32.006Z,2.10
2023-03-31T14:40:34.414Z,2.72
2023-03-31T14:43:45.986Z,2.47
2023-03-31T14:46:48.336Z,2.20
2023-03-31T14:50:09.344Z,2.60
2023-03-31T14:53:23.627Z,2.75
2023-03-31T14:56:33.873Z,2.47
2023-03-31T14:59:37.436Z,3.87
2023-03-31T15:02:43.321Z,2.58
2023-03-31T15:05:48.826Z,2.30
2023-03-31T15:08:56.687Z,2.17
2023-03-31T15:12:07.051Z,2.40
2023-03-31T15:15:13.400Z,2.22
2023-03-31T15:18:17.375Z,3.08
2023-03-31T15:21:21.922Z,2.55
2023-03-31T15:24:24.305Z,2.60
2023-03-31T15:27:47.629Z,3.70
2023-03-31T15:30:56.938Z,2.65
